Time;durP1;ratioP1;P1;durP2;ratioP2;P2;SDS_P1;SDS_P2;PMS_P1;PMS_P2;Temp;Humidity;BMP_temperature;BMP_pressure;BME280_temperature;BME280_humidity;BME280_pressure;Samples;Min_cycle;Max_cycle;Signal;HPM_P1;HPM_P2
2024/03/19 00:01:45;;;;;;;0.10;0.10;;;;;;;11.90;69.27;101784.41;5075028;28;20119;-77
2024/03/19 00:04:11;;;;;;;0.10;0.10;;;;;;;11.99;68.77;101784.34;5075728;28;20059;-78
2024/03/19 00:06:37;;;;;;;0.10;0.10;;;;;;;12.04;68.84;101781.66;5080132;28;20016;-77
2024/03/19 00:09:04;;;;;;;0.10;0.10;;;;;;;12.06;68.95;101790.47;5072686;28;20426;-77
2024/03/19 00:11:30;;;;;;;0.30;0.30;;;;;;;12.08;68.44;101788.69;5072661;28;20510;-77
2024/03/19 00:13:56;;;;;;;0.10;0.10;;;;;;;12.13;68.40;101792.16;5070859;28;20032;-78
2024/03/19 00:16:23;;;;;;;0.10;0.10;;;;;;;12.15;68.29;101785.06;5072294;28;20037;-78
2024/03/19 00:18:49;;;;;;;0.30;0.30;;;;;;;12.17;68.66;101788.56;5074764;28;20032;-78
2024/03/19 00:21:15;;;;;;;0.08;0.08;;;;;;;12.22;68.36;101784.09;5078525;28;20487;-78
2024/03/19 00:23:41;;;;;;;0.10;0.10;;;;;;;12.28;68.27;101788.47;5074823;28;20037;-79
2024/03/19 00:26:08;;;;;;;0.13;0.13;;;;;;;12.32;67.63;101784.00;5076999;28;20085;-79
2024/03/19 00:28:34;;;;;;;0.38;0.38;;;;;;;12.37;67.81;101779.50;5075283;28;20036;-80
2024/03/19 00:31:00;;;;;;;0.20;0.20;;;;;;;12.41;67.59;101782.09;5076697;28;20032;-79
2024/03/19 00:33:27;;;;;;;0.32;0.32;;;;;;;12.45;67.58;101783.81;5077673;28;20028;-81
2024/03/19 00:35:53;;;;;;;0.10;0.10;;;;;;;12.49;67.19;101787.31;5079477;28;20032;-80
2024/03/19 00:38:19;;;;;;;0.10;0.10;;;;;;;12.51;67.63;101789.94;5076394;28;20029;-78
2024/03/19 00:40:46;;;;;;;0.10;0.10;;;;;;;12.54;67.00;101781.94;5081107;28;20107;-79
2024/03/19 00:43:12;;;;;;;0.00;0.00;;;;;;;12.56;67.62;101783.69;5078418;28;20028;-79
2024/03/19 00:45:38;;;;;;;0.30;0.30;;;;;;;12.60;67.35;101782.72;5079621;28;20028;-79
2024/03/19 00:48:05;;;;;;;0.10;0.10;;;;;;;12.60;66.85;101782.72;5074856;28;20029;-80
2024/03/19 00:50:31;;;;;;;0.20;0.20;;;;;;;12.63;67.02;101781.81;5080365;28;20028;-79
2024/03/19 00:52:57;;;;;;;0.10;0.10;;;;;;;12.65;67.37;101779.13;5079934;28;20478;-78
2024/03/19 00:55:24;;;;;;;0.03;0.03;;;;;;;12.68;67.08;101781.75;5073198;28;20110;-79
2024/03/19 00:57:50;;;;;;;0.57;0.57;;;;;;;12.68;66.95;101781.75;5078162;28;20032;-78
2024/03/19 01:00:18;;;;;;;0.75;0.75;;;;;;;12.71;66.46;101779.03;5078035;28;20028;-77
2024/03/19 01:02:44;;;;;;;0.17;0.17;;;;;;;12.75;66.72;101776.31;5074810;28;20049;-77
2024/03/19 01:05:12;;;;;;;0.35;0.35;;;;;;;12.77;66.75;101778.94;5079214;28;20017;-78
2024/03/19 01:07:40;;;;;;;0.55;0.55;;;;;;;12.79;67.25;101771.84;5087441;28;20048;-77
2024/03/19 01:10:07;;;;;;;0.10;0.10;;;;;;;12.73;67.07;101774.59;5085376;28;20024;-78
2024/03/19 01:12:34;;;;;;;0.10;0.10;;;;;;;12.74;67.10;101763.06;5086532;28;20471;-79
2024/03/19 01:15:00;;;;;;;0.10;0.10;;;;;;;12.75;67.27;101775.47;5081391;28;20042;-79
2024/03/19 01:17:27;;;;;;;1.92;1.83;;;;;;;12.71;67.42;101774.63;5083524;28;20029;-78
2024/03/19 01:19:53;;;;;;;0.30;0.30;;;;;;;12.76;67.45;101766.56;5083421;28;20141;-79
2024/03/19 01:22:20;;;;;;;0.10;0.10;;;;;;;12.72;67.25;101770.16;5077413;28;20033;-78
2024/03/19 01:24:46;;;;;;;0.10;0.10;;;;;;;12.74;67.49;101773.69;5074708;28;20071;-79
2024/03/19 01:27:12;;;;;;;0.10;0.10;;;;;;;12.86;67.41;101776.19;5069651;28;20449;-79
2024/03/19 01:29:38;;;;;;;0.13;0.13;;;;;;;12.90;67.09;101779.69;5080170;28;20053;-79
2024/03/19 01:32:05;;;;;;;0.20;0.20;;;;;;;12.95;67.19;101768.03;5079964;28;20070;-78
2024/03/19 01:34:31;;;;;;;0.08;0.08;;;;;;;12.95;67.15;101770.72;5075873;28;20617;-79
2024/03/19 01:36:58;;;;;;;0.10;0.10;;;;;;;13.03;66.88;101769.72;5080416;28;20063;-79
2024/03/19 01:39:24;;;;;;;0.10;0.10;;;;;;;13.05;66.86;101771.44;5069104;28;20447;-78
2024/03/19 01:41:53;;;;;;;2.72;0.73;;;;;;;13.03;66.41;101769.72;5067692;28;20433;-78
2024/03/19 01:44:21;;;;;;;0.10;0.10;;;;;;;13.07;66.77;101774.06;5076699;28;20503;-79
2024/03/19 01:46:48;;;;;;;0.10;0.10;;;;;;;13.05;66.58;101767.94;5077759;28;20029;-79
2024/03/19 01:49:16;;;;;;;0.10;0.10;;;;;;;13.06;67.13;101774.97;5074386;28;20044;-79
2024/03/19 01:51:43;;;;;;;0.10;0.10;;;;;;;13.12;66.70;101772.22;5079897;28;20036;-79
2024/03/19 01:54:10;;;;;;;0.52;0.20;;;;;;;13.11;66.83;101776.69;5077787;28;20091;-79
2024/03/19 01:56:37;;;;;;;0.65;0.65;;;;;;;13.03;66.98;101767.06;5072653;28;20116;-78
2024/03/19 01:59:03;;;;;;;0.15;0.15;;;;;;;13.20;66.52;101769.47;5077597;28;20028;-78
2024/03/19 02:01:30;;;;;;;0.35;0.35;;;;;;;13.20;66.33;101773.00;5077894;28;20454;-77
2024/03/19 02:03:56;;;;;;;0.10;0.10;;;;;;;13.22;66.67;101773.84;5085366;28;20028;-78
2024/03/19 02:06:22;;;;;;;0.10;0.10;;;;;;;13.24;66.51;101758.72;5077502;28;20039;-78
2024/03/19 02:09:12;;;;;;;0.30;0.30;;;;;;;13.34;66.66;101763.91;5074798;28;20037;-79
2024/03/19 02:11:38;;;;;;;0.20;0.20;;;;;;;13.25;66.63;101773.78;5075311;28;20439;-78
2024/03/19 02:14:06;;;;;;;0.10;0.10;;;;;;;13.20;66.65;101767.66;5079926;28;20037;-79
2024/03/19 02:16:33;;;;;;;0.10;0.10;;;;;;;13.24;66.53;101760.50;5079804;28;20029;-79
2024/03/19 02:19:03;;;;;;;0.57;0.57;;;;;;;13.25;66.46;101765.81;5081025;28;20114;-77
2024/03/19 02:21:30;;;;;;;0.47;0.47;;;;;;;13.23;66.88;101764.97;5069289;28;20059;-78
2024/03/19 02:23:59;;;;;;;0.57;0.52;;;;;;;13.14;67.15;101766.91;5081848;28;20025;-78
2024/03/19 02:26:27;;;;;;;0.08;0.08;;;;;;;13.26;66.89;101762.25;5071203;28;20029;-79
2024/03/19 02:28:54;;;;;;;0.10;0.10;;;;;;;13.24;66.62;101763.19;5071366;28;20037;-79
2024/03/19 02:31:22;;;;;;;0.30;0.30;;;;;;;13.25;67.02;101757.81;5073358;28;20036;-79
2024/03/19 02:33:49;;;;;;;0.10;0.10;;;;;;;13.19;67.09;101752.59;5073975;28;20092;-79
2024/03/19 02:36:15;;;;;;;0.10;0.10;;;;;;;13.25;67.09;101755.16;5077389;28;20035;-79
2024/03/19 02:38:41;;;;;;;0.05;0.05;;;;;;;13.27;66.82;101760.44;5077673;28;20078;-79
2024/03/19 02:41:08;;;;;;;0.10;0.10;;;;;;;13.27;66.92;101757.78;5076336;28;20487;-78
2024/03/19 02:43:36;;;;;;;0.30;0.30;;;;;;;13.25;67.26;101749.84;5077436;28;20565;-79
2024/03/19 02:46:02;;;;;;;0.10;0.10;;;;;;;13.30;66.89;101746.25;5075164;28;21123;-79
2024/03/19 02:48:28;;;;;;;0.40;0.40;;;;;;;13.29;67.21;101750.66;5082219;28;20164;-77
2024/03/19 02:50:55;;;;;;;0.10;0.10;;;;;;;13.21;67.54;101750.81;5088020;28;20084;-78
2024/03/19 02:53:21;;;;;;;0.30;0.30;;;;;;;13.19;67.09;101747.28;5083946;28;20041;-79
2024/03/19 02:55:48;;;;;;;0.10;0.10;;;;;;;13.19;67.37;101739.28;5080755;28;20381;-79
2024/03/19 02:58:16;;;;;;;0.10;0.10;;;;;;;13.23;67.54;101738.34;5074808;28;20056;-80
2024/03/19 03:00:42;;;;;;;0.10;0.10;;;;;;;13.23;67.22;101729.47;5076237;28;20036;-79
2024/03/19 03:03:09;;;;;;;0.10;0.10;;;;;;;13.22;67.32;101739.25;5078070;28;20032;-80
2024/03/19 03:05:36;;;;;;;0.10;0.10;;;;;;;13.10;67.75;101744.78;5078134;28;20056;-80
2024/03/19 03:08:02;;;;;;;0.10;0.10;;;;;;;13.16;67.84;101736.69;5075311;28;20095;-79
2024/03/19 03:10:29;;;;;;;0.43;0.43;;;;;;;13.22;67.65;101739.25;5079795;28;20028;-78
2024/03/19 03:12:55;;;;;;;0.95;0.95;;;;;;;13.25;67.32;101744.50;5078864;28;20092;-79
2024/03/19 03:15:22;;;;;;;0.10;0.10;;;;;;;13.26;67.64;101740.94;5079723;28;20115;-79
2024/03/19 03:17:49;;;;;;;0.20;0.20;;;;;;;13.27;67.35;101742.72;5079108;28;20029;-78
2024/03/19 03:20:15;;;;;;;0.10;0.10;;;;;;;13.22;67.39;101749.91;5074518;28;20037;-78
2024/03/19 03:22:42;;;;;;;0.20;0.20;;;;;;;13.22;67.51;101741.91;5079084;28;20031;-78
2024/03/19 03:25:11;;;;;;;0.00;0.00;;;;;;;13.26;67.45;101750.72;5083264;28;20024;-79
2024/03/19 03:27:39;;;;;;;0.10;0.10;;;;;;;13.29;67.07;101749.81;5074134;28;20029;-79
2024/03/19 03:30:08;;;;;;;0.10;0.10;;;;;;;13.26;67.49;101751.59;5075602;28;20056;-79
2024/03/19 03:32:36;;;;;;;0.10;0.10;;;;;;;13.29;67.19;101749.81;5074806;28;20428;-79
2024/03/19 03:35:03;;;;;;;0.10;0.10;;;;;;;13.24;67.17;101753.41;5078719;28;20051;-79
2024/03/19 03:37:30;;;;;;;0.40;0.40;;;;;;;13.26;67.42;101753.41;5073822;28;20036;-79
2024/03/19 03:39:56;;;;;;;0.10;0.10;;;;;;;13.27;67.39;101758.69;5079073;28;20100;-79
2024/03/19 03:42:24;;;;;;;6.60;1.58;;;;;;;13.31;67.25;101753.28;5078852;28;20061;-79
2024/03/19 03:44:50;;;;;;;0.10;0.10;;;;;;;13.33;67.12;101752.38;5078973;28;20024;-79
2024/03/19 03:47:17;;;;;;;0.52;0.52;;;;;;;13.35;67.03;101761.22;5073460;28;20041;-79
2024/03/19 03:49:43;;;;;;;0.00;0.00;;;;;;;13.37;67.05;101759.44;5069989;28;20025;-79
2024/03/19 03:52:09;;;;;;;1.20;1.10;;;;;;;13.39;66.96;101762.06;5075464;28;20051;-79
2024/03/19 03:54:36;;;;;;;0.10;0.10;;;;;;;13.43;67.24;101761.09;5074494;28;20107;-79
2024/03/19 03:57:02;;;;;;;0.40;0.40;;;;;;;13.45;67.02;101755.78;5074971;28;20092;-79
2024/03/19 03:59:28;;;;;;;0.35;0.35;;;;;;;13.48;66.97;101761.91;5077616;28;20040;-79
2024/03/19 04:01:54;;;;;;;0.10;0.10;;;;;;;13.47;66.94;101756.63;5074563;28;20030;-79
2024/03/19 04:04:21;;;;;;;0.22;0.22;;;;;;;13.47;67.16;101760.16;5074373;28;20057;-78
2024/03/19 04:06:49;;;;;;;0.10;0.10;;;;;;;13.51;66.85;101761.00;5076402;28;20082;-79
2024/03/19 04:09:15;;;;;;;0.10;0.10;;;;;;;13.51;66.88;101766.31;5075246;28;20058;-78
2024/03/19 04:11:42;;;;;;;0.10;0.10;;;;;;;13.52;67.10;101758.31;5081192;28;20028;-77
2024/03/19 04:14:08;;;;;;;0.20;0.20;;;;;;;13.52;66.79;101763.63;5082334;28;20024;-77
2024/03/19 04:16:34;;;;;;;0.10;0.10;;;;;;;13.52;66.96;101755.63;5080115;28;20055;-78
2024/03/19 04:19:01;;;;;;;0.10;0.10;;;;;;;13.51;66.94;101761.88;5080274;28;20031;-78
2024/03/19 04:21:27;;;;;;;0.15;0.15;;;;;;;13.50;66.98;101770.75;5074848;28;20040;-77
2024/03/19 04:23:53;;;;;;;0.10;0.10;;;;;;;13.49;66.82;101774.31;5078463;28;20028;-78
2024/03/19 04:26:19;;;;;;;0.10;0.10;;;;;;;13.50;66.75;101776.06;5071631;28;20395;-78
2024/03/19 04:28:45;;;;;;;0.05;0.05;;;;;;;13.50;66.79;101770.75;5072159;28;20446;-79
2024/03/19 04:31:12;;;;;;;1.00;1.00;;;;;;;13.47;67.15;101785.91;5076573;28;20024;-79
2024/03/19 04:33:38;;;;;;;0.00;0.00;;;;;;;13.53;67.05;101786.69;5081589;28;20499;-79
2024/03/19 04:36:04;;;;;;;0.63;0.63;;;;;;;13.51;66.91;101785.81;5085530;28;20028;-80
2024/03/19 04:38:30;;;;;;;0.10;0.10;;;;;;;13.56;66.59;101773.31;5085593;28;20507;-80
2024/03/19 04:40:57;;;;;;;0.65;0.65;;;;;;;13.58;66.91;101774.16;5084566;28;20043;-80
2024/03/19 04:43:23;;;;;;;0.10;0.10;;;;;;;13.57;66.60;101777.72;5084944;28;20086;-78
2024/03/19 04:45:49;;;;;;;0.75;0.52;;;;;;;13.58;66.68;101773.28;5083310;28;20044;-78
2024/03/19 04:48:15;;;;;;;0.65;0.47;;;;;;;13.59;66.54;101780.34;5080248;28;20037;-79
2024/03/19 04:50:41;;;;;;;0.20;0.20;;;;;;;13.60;66.65;101776.78;5077558;28;20031;-79
2024/03/19 04:53:08;;;;;;;0.10;0.10;;;;;;;13.57;66.74;101777.72;5078221;28;20032;-77
2024/03/19 04:55:34;;;;;;;0.10;0.10;;;;;;;13.59;66.72;101781.25;5075816;28;20021;-79
2024/03/19 04:58:00;;;;;;;0.10;0.10;;;;;;;13.61;66.39;101780.31;5078056;28;20036;-77
2024/03/19 05:00:26;;;;;;;0.10;0.10;;;;;;;13.62;66.64;101780.31;5082941;28;20029;-78
2024/03/19 05:02:53;;;;;;;0.52;0.52;;;;;;;13.64;66.51;101777.63;5076967;28;20029;-78
2024/03/19 05:05:19;;;;;;;1.25;1.15;;;;;;;13.63;66.52;101781.19;5085207;28;20043;-78
2024/03/19 05:07:45;;;;;;;0.60;0.60;;;;;;;13.64;66.36;101780.28;5085368;28;20040;-78
2024/03/19 05:10:11;;;;;;;0.10;0.10;;;;;;;13.63;66.33;101781.19;5081590;28;20024;-78
2024/03/19 05:12:37;;;;;;;0.10;0.10;;;;;;;13.65;66.41;101779.38;5078470;28;20024;-77
2024/03/19 05:15:06;;;;;;;0.10;0.10;;;;;;;13.65;66.46;101780.25;5085790;28;20141;-78
2024/03/19 05:17:33;;;;;;;0.10;0.10;;;;;;;13.66;66.51;101783.81;5086279;28;20032;-76
2024/03/19 05:19:59;;;;;;;0.10;0.10;;;;;;;13.65;66.60;101784.72;5079200;28;20048;-77
2024/03/19 05:22:26;;;;;;;0.10;0.10;;;;;;;13.65;66.34;101795.38;5075163;28;20029;-78
2024/03/19 05:24:52;;;;;;;0.10;0.10;;;;;;;13.64;66.53;101785.63;5071048;28;20119;-78
2024/03/19 05:27:19;;;;;;;0.10;0.10;;;;;;;13.63;66.53;101786.50;5077322;28;20024;-78
2024/03/19 05:29:45;;;;;;;0.10;0.10;;;;;;;13.62;66.62;101787.41;5078370;28;20037;-78
2024/03/19 05:32:11;;;;;;;0.25;0.25;;;;;;;13.59;66.59;101788.34;5077171;28;20048;-78
2024/03/19 05:34:37;;;;;;;0.20;0.20;;;;;;;13.57;66.85;101788.38;5083124;28;20384;-79
2024/03/19 05:37:03;;;;;;;0.10;0.10;;;;;;;13.56;66.48;101797.28;5085649;28;20423;-79
2024/03/19 05:39:30;;;;;;;0.10;0.10;;;;;;;13.52;66.76;101792.91;5080907;28;20484;-79
2024/03/19 05:41:56;;;;;;;0.10;0.10;;;;;;;13.52;66.91;101795.56;5084866;28;20059;-80
2024/03/19 05:44:23;;;;;;;0.10;0.10;;;;;;;13.53;66.87;101788.47;5082299;28;20044;-78
2024/03/19 05:46:50;;;;;;;0.85;0.85;;;;;;;13.51;66.92;101790.28;5079789;28;20028;-79
2024/03/19 05:49:16;;;;;;;0.40;0.40;;;;;;;13.52;67.02;101792.00;5083051;28;20487;-79
2024/03/19 05:51:42;;;;;;;0.10;0.10;;;;;;;13.49;67.11;101789.44;5082208;28;20098;-79
2024/03/19 05:54:08;;;;;;;0.10;0.10;;;;;;;13.50;67.00;101785.84;5091822;28;20039;-78
2024/03/19 05:56:34;;;;;;;0.52;0.52;;;;;;;13.51;66.94;101784.97;5106424;28;20028;-78
2024/03/19 05:59:00;;;;;;;0.10;0.10;;;;;;;13.52;67.00;101784.03;5098816;28;20032;-78
2024/03/19 06:01:27;;;;;;;0.10;0.10;;;;;;;13.53;66.74;101786.69;5089281;28;20036;-78
2024/03/19 06:03:53;;;;;;;0.10;0.10;;;;;;;13.54;67.00;101787.56;5082050;28;20480;-79
2024/03/19 06:06:19;;;;;;;0.30;0.30;;;;;;;13.55;66.77;101791.97;5083450;28;20031;-78
2024/03/19 06:08:45;;;;;;;0.10;0.10;;;;;;;13.55;66.95;101790.19;5076466;28;20040;-79
2024/03/19 06:11:12;;;;;;;1.20;1.20;;;;;;;13.54;66.82;101788.41;5082226;28;20024;-79
2024/03/19 06:13:38;;;;;;;0.08;0.08;;;;;;;13.54;66.89;101798.19;5079689;28;20082;-78
2024/03/19 06:16:05;;;;;;;0.10;0.10;;;;;;;13.54;66.85;101783.09;5082101;28;20410;-77
2024/03/19 06:18:32;;;;;;;0.10;0.10;;;;;;;13.53;66.83;101794.69;5081289;28;20029;-78
2024/03/19 06:20:58;;;;;;;0.10;0.10;;;;;;;13.52;66.66;101789.34;5080062;28;20036;-78
2024/03/19 06:23:25;;;;;;;0.10;0.10;;;;;;;13.52;66.91;101792.91;5082803;28;20415;-77
2024/03/19 06:25:52;;;;;;;0.10;0.10;;;;;;;13.52;66.86;101784.03;5082703;28;20029;-77
2024/03/19 06:28:19;;;;;;;0.10;0.10;;;;;;;13.53;66.97;101792.00;5082335;28;20032;-78
2024/03/19 06:30:45;;;;;;;0.10;0.10;;;;;;;13.55;66.71;101794.66;5082148;28;20110;-77
2024/03/19 06:33:12;;;;;;;0.10;0.10;;;;;;;13.58;66.92;101797.25;5084364;28;20513;-78
2024/03/19 06:35:40;;;;;;;0.10;0.10;;;;;;;13.58;66.88;101794.56;5081908;28;20025;-77
2024/03/19 06:38:06;;;;;;;0.13;0.13;;;;;;;13.60;67.05;101792.78;5084337;28;20023;-78
2024/03/19 06:40:33;;;;;;;0.13;0.13;;;;;;;13.60;66.97;101798.09;5080184;28;20590;-77
2024/03/19 06:42:59;;;;;;;0.10;0.10;;;;;;;13.61;66.86;101804.28;5077717;28;20056;-78
2024/03/19 06:45:29;;;;;;;0.10;0.10;;;;;;;13.64;67.03;101799.78;5081641;28;20025;-78
2024/03/19 06:47:55;;;;;;;0.10;0.10;;;;;;;13.68;67.07;101803.28;5081332;28;20456;-80
2024/03/19 06:50:22;;;;;;;0.10;0.10;;;;;;;13.68;66.83;101796.19;5079750;28;20101;-78
2024/03/19 06:52:50;;;;;;;1.27;1.17;;;;;;;13.71;66.92;101812.09;5081259;28;20055;-79
2024/03/19 06:55:19;;;;;;;0.10;0.10;;;;;;;13.75;66.76;101810.25;5077718;28;20022;-84
2024/03/19 06:57:47;;;;;;;0.13;0.13;;;;;;;13.73;66.60;101807.63;5078133;28;20041;-80
2024/03/19 07:00:13;;;;;;;0.10;0.10;;;;;;;13.80;66.45;101807.53;5076901;28;20492;-79
2024/03/19 07:02:41;;;;;;;0.10;0.10;;;;;;;13.84;66.53;101810.09;5074796;28;20113;-80
2024/03/19 07:05:08;;;;;;;0.10;0.10;;;;;;;13.85;66.34;101821.63;5074113;28;20055;-80
2024/03/19 07:07:35;;;;;;;0.00;0.00;;;;;;;13.90;66.13;101823.28;5071661;28;20040;-80
2024/03/19 07:10:03;;;;;;;0.10;0.10;;;;;;;13.96;66.22;101826.78;5072639;28;20024;-80
2024/03/19 07:12:29;;;;;;;0.85;0.52;;;;;;;13.98;66.12;101820.53;5071929;28;20028;-79
2024/03/19 07:14:59;;;;;;;0.10;0.10;;;;;;;14.00;66.09;101823.16;5075032;28;20063;-78
2024/03/19 07:17:26;;;;;;;0.20;0.20;;;;;;;13.99;65.86;101819.59;5073935;28;20044;-79
2024/03/19 07:19:54;;;;;;;0.10;0.10;;;;;;;14.06;65.86;101818.56;5078858;28;20052;-79
2024/03/19 07:22:21;;;;;;;0.10;0.10;;;;;;;14.12;65.97;101822.91;5072242;28;20591;-78
2024/03/19 07:24:47;;;;;;;0.10;0.10;;;;;;;14.17;65.82;101814.84;5075022;28;20052;-79
2024/03/19 07:27:14;;;;;;;2.38;1.45;;;;;;;14.21;65.80;101825.38;5079169;28;20400;-79
2024/03/19 07:29:41;;;;;;;0.00;0.00;;;;;;;14.28;65.64;101825.28;5075929;28;20041;-76
2024/03/19 07:32:10;;;;;;;0.10;0.10;;;;;;;14.32;65.60;101824.31;5079860;28;20024;-79
2024/03/19 07:34:37;;;;;;;0.10;0.10;;;;;;;14.42;65.74;101823.22;5080782;28;20033;-79
2024/03/19 07:37:04;;;;;;;0.15;0.15;;;;;;;14.43;65.43;101821.41;5082654;28;20082;-79
2024/03/19 07:39:31;;;;;;;0.73;0.73;;;;;;;14.44;65.30;101824.03;5074829;28;20025;-77
2024/03/19 07:41:58;;;;;;;0.20;0.20;;;;;;;14.46;65.29;101822.22;5081897;28;20042;-80
2024/03/19 07:44:25;;;;;;;0.10;0.10;;;;;;;14.47;65.18;101824.00;5085411;28;20503;-77
2024/03/19 07:46:51;;;;;;;4.68;1.45;;;;;;;14.46;65.04;101814.25;5078582;28;20029;-78
2024/03/19 07:49:17;;;;;;;0.10;0.10;;;;;;;14.49;65.08;101816.84;5080295;28;20060;-78
2024/03/19 07:51:43;;;;;;;0.05;0.05;;;;;;;14.52;65.07;101810.56;5075537;28;20585;-78
2024/03/19 07:54:10;;;;;;;0.25;0.25;;;;;;;14.56;65.29;101818.47;5077390;28;20442;-79
2024/03/19 07:56:40;;;;;;;0.10;0.10;;;;;;;14.60;65.23;101818.41;5076441;28;20024;-79
2024/03/19 07:59:07;;;;;;;0.10;0.10;;;;;;;14.66;65.07;101820.97;5079389;28;20118;-79
2024/03/19 08:01:33;;;;;;;0.10;0.10;;;;;;;14.72;64.97;101821.72;5075526;28;20426;-79
2024/03/19 08:03:59;;;;;;;0.20;0.20;;;;;;;14.73;64.86;101825.28;5081584;28;20036;-80
2024/03/19 08:06:26;;;;;;;0.10;0.10;;;;;;;14.77;64.94;101824.28;5079759;28;20032;-78
2024/03/19 08:08:53;;;;;;;0.32;0.32;;;;;;;14.80;64.76;101826.88;5082376;28;20060;-80
2024/03/19 08:11:19;;;;;;;0.10;0.10;;;;;;;14.84;64.46;101823.25;5085604;28;20034;-79
2024/03/19 08:13:45;;;;;;;0.10;0.10;;;;;;;14.86;64.34;101825.88;5081532;28;20047;-80
2024/03/19 08:16:15;;;;;;;0.10;0.10;;;;;;;14.88;64.30;101826.72;5082991;28;20637;-79
2024/03/19 08:18:42;;;;;;;0.10;0.10;;;;;;;14.90;64.53;101827.56;5081536;28;20399;-79
2024/03/19 08:21:08;;;;;;;0.10;0.10;;;;;;;14.96;64.30;101834.56;5084610;28;20024;-80
2024/03/19 08:23:35;;;;;;;0.10;0.10;;;;;;;14.93;63.58;101834.59;5083643;28;20085;-80
2024/03/19 08:26:01;;;;;;;0.10;0.10;;;;;;;14.95;63.69;101835.47;5085244;28;20020;-79
2024/03/19 08:28:27;;;;;;;0.10;0.10;;;;;;;14.91;63.58;101828.44;5082951;28;20484;-79
2024/03/19 08:30:53;;;;;;;0.10;0.10;;;;;;;15.00;63.58;101829.13;5083059;28;20029;-79
2024/03/19 08:33:20;;;;;;;0.25;0.25;;;;;;;15.04;63.69;101827.22;5081882;28;20088;-79
2024/03/19 08:35:46;;;;;;;0.35;0.35;;;;;;;15.10;63.62;101832.44;5081563;28;20021;-79
2024/03/19 08:38:12;;;;;;;0.10;0.10;;;;;;;15.11;63.42;101831.53;5083836;28;20505;-79
2024/03/19 08:40:38;;;;;;;0.20;0.20;;;;;;;15.15;63.31;101833.22;5081055;28;20507;-78
2024/03/19 08:43:04;;;;;;;0.10;0.10;;;;;;;15.17;63.20;101839.38;5083933;28;20506;-79
2024/03/19 08:45:30;;;;;;;0.57;0.52;;;;;;;15.15;62.80;101840.34;5081385;28;20025;-80
2024/03/19 08:47:57;;;;;;;0.10;0.10;;;;;;;15.20;62.66;101841.09;5080315;28;20124;-79
2024/03/19 08:50:23;;;;;;;0.52;0.52;;;;;;;15.20;63.16;101841.09;5081666;28;20107;-80
2024/03/19 08:52:49;;;;;;;0.55;0.43;;;;;;;15.19;62.66;101840.25;5082148;28;20085;-79
2024/03/19 08:55:15;;;;;;;0.20;0.20;;;;;;;15.13;62.36;101843.06;5083565;28;20035;-79
2024/03/19 08:57:42;;;;;;;0.20;0.20;;;;;;;15.27;62.25;101847.19;5081775;28;20020;-80
2024/03/19 09:00:15;;;;;;;0.40;0.40;;;;;;;15.33;62.46;101842.59;5080698;28;20032;-78
2024/03/19 09:02:42;;;;;;;0.20;0.20;;;;;;;15.40;62.64;101845.97;5082206;28;20039;-78
2024/03/19 09:05:09;;;;;;;0.10;0.10;;;;;;;15.46;62.44;101842.28;5082370;28;20090;-78
2024/03/19 09:07:39;;;;;;;0.20;0.20;;;;;;;15.51;62.18;101835.03;5081171;28;20036;-79
2024/03/19 09:10:07;;;;;;;0.15;0.15;;;;;;;15.60;61.92;101833.91;5084841;28;20040;-79
2024/03/19 09:12:33;;;;;;;0.20;0.20;;;;;;;15.67;61.69;101835.53;5082330;28;20068;-80
2024/03/19 09:15:00;;;;;;;0.20;0.20;;;;;;;15.81;62.32;101838.75;5084444;28;20028;-79
2024/03/19 09:17:26;;;;;;;0.20;0.20;;;;;;;15.95;62.26;101840.19;5088309;28;20065;-78
2024/03/19 09:19:52;;;;;;;0.10;0.10;;;;;;;16.00;61.07;101832.94;5090176;28;20097;-79
2024/03/19 09:22:19;;;;;;;0.10;0.10;;;;;;;16.07;60.66;101839.84;5082698;28;20410;-80
2024/03/19 09:24:45;;;;;;;0.10;0.10;;;;;;;16.16;60.52;101839.63;5081304;28;20032;-81
2024/03/19 09:27:14;;;;;;;0.10;0.10;;;;;;;16.25;60.49;101837.59;5082864;28;20032;-80
2024/03/19 09:29:40;;;;;;;0.10;0.10;;;;;;;16.33;59.88;101835.59;5082862;28;20028;-79
2024/03/19 09:32:07;;;;;;;0.10;0.10;;;;;;;16.49;60.19;101839.56;5084527;28;20058;-79
2024/03/19 09:34:34;;;;;;;0.10;0.10;;;;;;;16.61;59.59;101834.78;5082147;28;20028;-80
2024/03/19 09:37:00;;;;;;;0.63;0.63;;;;;;;16.71;58.70;101841.63;5083273;28;20261;-79
2024/03/19 09:39:26;;;;;;;0.40;0.40;;;;;;;16.80;58.35;101840.47;5081848;28;20028;-79
2024/03/19 09:42:14;;;;;;;0.45;0.45;;;;;;;16.93;58.29;101841.00;5082202;28;20032;-79
2024/03/19 09:44:42;;;;;;;0.20;0.20;;;;;;;16.89;58.58;101840.19;5078695;28;20040;-80
2024/03/19 09:47:14;;;;;;;0.10;0.10;;;;;;;16.88;58.47;101837.56;5080419;28;20530;-80
2024/03/19 09:49:40;;;;;;;0.20;0.20;;;;;;;16.90;57.76;101843.75;5078224;28;20064;-79
2024/03/19 09:52:07;;;;;;;0.10;0.10;;;;;;;17.05;58.48;101834.41;5078475;28;20062;-80
2024/03/19 09:54:33;;;;;;;1.00;1.00;;;;;;;17.14;58.06;101829.59;5081171;28;20033;-81
2024/03/19 09:57:05;;;;;;;0.20;0.20;;;;;;;17.24;58.22;101834.69;5081822;28;20513;-79
2024/03/19 09:59:31;;;;;;;0.40;0.40;;;;;;;17.36;57.79;101836.97;5073400;28;20032;-78
2024/03/19 10:01:58;;;;;;;0.20;0.20;;;;;;;17.46;57.61;101830.38;5080581;28;20050;-81
2024/03/19 10:04:25;;;;;;;0.10;0.10;;;;;;;17.55;57.11;101831.00;5077973;28;20055;-79
2024/03/19 10:06:54;;;;;;;0.10;0.10;;;;;;;17.56;56.13;101830.09;5078544;28;20131;-80
2024/03/19 10:09:20;;;;;;;0.10;0.10;;;;;;;17.59;56.26;101838.00;5081707;28;20039;-80
2024/03/19 10:11:48;;;;;;;0.68;0.68;;;;;;;17.62;56.31;101825.38;5078713;28;20033;-79
2024/03/19 10:14:15;;;;;;;0.20;0.20;;;;;;;17.73;56.94;101827.72;5077612;28;20120;-79
2024/03/19 10:16:42;;;;;;;0.32;0.32;;;;;;;17.70;55.34;101830.47;5077175;28;20025;-80
2024/03/19 10:19:11;;;;;;;1.25;0.47;;;;;;;17.75;54.96;101830.31;5079873;28;20422;-80
2024/03/19 10:21:38;;;;;;;2.53;1.58;;;;;;;17.79;55.22;101831.97;5079300;28;20092;-80
2024/03/19 10:24:12;;;;;;;0.10;0.10;;;;;;;17.95;55.49;101818.94;5082392;28;20556;-80
2024/03/19 10:26:39;;;;;;;0.10;0.10;;;;;;;17.98;54.92;101823.31;5077410;28;20051;-82
2024/03/19 10:29:06;;;;;;;0.10;0.10;;;;;;;18.07;54.26;101826.53;5090170;28;20029;-79
2024/03/19 10:31:32;;;;;;;0.10;0.10;;;;;;;18.17;53.57;101831.56;5086065;28;20044;-78
2024/03/19 10:34:00;;;;;;;1.00;1.00;;;;;;;18.35;54.43;101825.53;5089238;28;20036;-78
2024/03/19 10:36:32;;;;;;;4.80;0.82;;;;;;;18.48;53.17;101830.44;5089231;28;20029;-78
2024/03/19 10:38:58;;;;;;;;;;;;;;;18.71;52.35;101821.53;5086386;28;20107;-78
2024/03/19 10:41:28;;;;;;;0.10;0.10;;;;;;;18.73;52.81;101828.56;5086181;28;19916;-77
2024/03/19 10:44:00;;;;;;;0.13;0.13;;;;;;;18.85;51.94;101829.88;5089554;28;20047;-77
2024/03/19 10:46:29;;;;;;;1.50;1.40;;;;;;;19.03;51.75;101828.34;5086765;28;20035;-77
2024/03/19 10:48:56;;;;;;;0.10;0.10;;;;;;;19.00;50.06;101828.44;5081851;28;20097;-78
2024/03/19 10:51:25;;;;;;;2.50;2.15;;;;;;;19.10;50.48;101828.97;5081964;28;20051;-80
2024/03/19 10:53:54;;;;;;;2.28;1.88;;;;;;;19.22;50.62;101827.59;5080974;28;20028;-78
2024/03/19 10:56:22;;;;;;;0.10;0.10;;;;;;;19.25;50.20;101832.84;5073719;28;20039;-78
2024/03/19 10:58:48;;;;;;;0.10;0.10;;;;;;;19.23;49.39;101829.34;5073300;28;20042;-80
2024/03/19 11:01:17;;;;;;;0.10;0.10;;;;;;;19.27;49.66;101820.22;5080392;28;20306;-79
2024/03/19 11:03:44;;;;;;;0.10;0.10;;;;;;;19.29;49.42;101820.16;5079753;28;20109;-78
2024/03/19 11:06:25;;;;;;;0.10;0.10;;;;;;;19.24;48.85;101828.44;5077267;28;20099;-80
2024/03/19 11:08:53;;;;;;;0.10;0.10;;;;;;;19.15;49.69;101831.47;5073087;28;20025;-79
2024/03/19 11:11:19;;;;;;;0.10;0.10;;;;;;;19.13;49.51;101830.63;5071624;28;20025;-78
2024/03/19 11:13:53;;;;;;;0.10;0.10;;;;;;;19.24;49.99;101834.66;5069952;28;20043;-80
2024/03/19 11:16:20;;;;;;;0.05;0.05;;;;;;;19.16;48.73;101833.22;5074114;28;20503;-79
2024/03/19 11:18:50;;;;;;;0.10;0.10;;;;;;;19.21;48.93;101833.91;5076487;28;20111;-78
2024/03/19 11:21:19;;;;;;;0.10;0.10;;;;;;;19.21;48.87;101825.84;5077058;28;20101;-80
2024/03/19 11:23:46;;;;;;;0.10;0.10;;;;;;;19.32;49.00;101823.59;5076935;28;20038;-79